createdAt,value
2018-11-04T00:02:20.855Z,2.27
2018-11-04T00:05:17.777Z,2.10
2018-11-04T00:08:14.264Z,2.20
2018-11-04T00:11:11.870Z,1.93
2018-11-04T00:14:08.374Z,2.30
2018-11-04T00:17:05.334Z,1.90
2018-11-04T00:20:02.058Z,2.10
2018-11-04T00:22:58.569Z,2.07
2018-11-04T00:25:55.291Z,2.27
2018-11-04T00:28:52.229Z,2.07
2018-11-04T00:31:49.167Z,2.00
2018-11-04T00:34:46.139Z,2.20
2018-11-04T00:37:42.846Z,2.10
2018-11-04T00:40:41.011Z,2.13
2018-11-04T00:43:37.675Z,2.00
2018-11-04T00:46:34.681Z,2.17
2018-11-04T00:49:30.993Z,2.00
2018-11-04T00:52:27.921Z,2.10
2018-11-04T00:55:24.465Z,2.00
2018-11-04T00:58:21.183Z,2.10
2018-11-04T01:01:18.533Z,1.93
2018-11-04T01:04:15.253Z,2.10
2018-11-04T01:07:12.610Z,2.20
2018-11-04T01:10:09.337Z,2.00
2018-11-04T01:13:05.998Z,2.20
2018-11-04T01:16:03.431Z,1.90
2018-11-04T01:19:00.785Z,2.30
2018-11-04T01:21:57.290Z,1.80
2018-11-04T01:24:54.839Z,2.03
2018-11-04T01:27:51.571Z,1.70
2018-11-04T01:30:48.094Z,2.20
2018-11-04T01:33:44.827Z,2.10
2018-11-04T01:36:42.193Z,2.20
2018-11-04T01:39:38.920Z,2.27
2018-11-04T01:42:35.651Z,2.10
2018-11-04T01:45:32.355Z,2.17
2018-11-04T01:48:29.293Z,2.07
2018-11-04T01:51:26.441Z,1.90
2018-11-04T01:54:24.006Z,1.97
2018-11-04T01:57:21.341Z,2.00
2018-11-04T02:00:24.773Z,2.00
2018-11-04T02:03:21.719Z,1.80
2018-11-04T02:06:19.057Z,2.10
2018-11-04T02:09:16.842Z,2.00
2018-11-04T02:12:14.191Z,1.97
2018-11-04T02:15:10.734Z,2.00
2018-11-04T02:18:07.214Z,2.10
2018-11-04T02:21:03.882Z,1.83
2018-11-04T02:24:00.259Z,2.23
2018-11-04T02:26:56.975Z,1.90
2018-11-04T02:29:53.290Z,2.07
2018-11-04T02:32:51.487Z,1.93
2018-11-04T02:35:47.997Z,2.10
2018-11-04T02:38:44.520Z,2.17
2018-11-04T02:41:42.086Z,2.20
2018-11-04T02:44:38.818Z,2.03
2018-11-04T02:47:36.175Z,1.97
2018-11-04T02:50:33.529Z,2.20
2018-11-04T02:53:30.894Z,2.10
2018-11-04T02:56:29.098Z,2.03
2018-11-04T02:59:26.006Z,2.20
2018-11-04T03:02:23.349Z,2.17
2018-11-04T03:05:20.922Z,1.80
2018-11-04T03:08:17.910Z,1.93
2018-11-04T03:11:15.009Z,2.20
2018-11-04T03:14:12.764Z,2.00
2018-11-04T03:17:09.376Z,2.10
2018-11-04T03:20:07.894Z,1.97
2018-11-04T03:23:04.412Z,1.77
2018-11-04T03:26:01.147Z,2.10
2018-11-04T03:28:57.440Z,2.00
2018-11-04T03:31:55.009Z,2.13
2018-11-04T03:34:51.728Z,2.40
2018-11-04T03:37:48.477Z,1.90
2018-11-04T03:40:46.652Z,2.20
2018-11-04T03:43:43.378Z,2.00
2018-11-04T03:46:39.696Z,2.20
2018-11-04T03:49:37.457Z,2.07
2018-11-04T03:52:33.768Z,2.03
2018-11-04T03:55:31.574Z,2.20
2018-11-04T03:58:28.080Z,1.80
2018-11-04T04:01:24.795Z,2.27
2018-11-04T04:04:22.148Z,2.03
2018-11-04T04:07:19.292Z,2.00
2018-11-04T04:10:17.266Z,1.90
2018-11-04T04:13:14.203Z,2.20
2018-11-04T04:16:11.348Z,1.90
2018-11-04T04:19:08.492Z,2.10
2018-11-04T04:22:05.462Z,1.90
2018-11-04T04:25:02.380Z,1.83
2018-11-04T04:27:59.722Z,1.90
2018-11-04T04:30:56.641Z,1.83
2018-11-04T04:33:54.214Z,2.00
2018-11-04T04:36:50.744Z,2.13
2018-11-04T04:39:47.257Z,2.00
2018-11-04T04:42:44.010Z,2.20
2018-11-04T04:45:41.119Z,2.10
2018-11-04T04:48:38.059Z,2.10
2018-11-04T04:51:34.582Z,2.00
2018-11-04T04:54:33.058Z,2.00
2018-11-04T04:57:29.642Z,1.83
2018-11-04T05:00:27.273Z,1.90
2018-11-04T05:03:23.582Z,1.90
2018-11-04T05:06:20.527Z,1.50
2018-11-04T05:09:18.094Z,2.00
2018-11-04T05:12:14.813Z,2.00
2018-11-04T05:15:11.325Z,1.80
2018-11-04T05:18:08.472Z,2.10
2018-11-04T05:21:05.620Z,2.10
2018-11-04T05:24:02.333Z,1.80
2018-11-04T05:27:00.126Z,1.80
2018-11-04T05:29:57.262Z,1.80
2018-11-04T05:32:54.182Z,2.00
2018-11-04T05:35:50.914Z,1.90
2018-11-04T05:38:47.450Z,1.90
2018-11-04T05:41:44.207Z,1.70
2018-11-04T05:44:40.468Z,2.13
2018-11-04T05:47:37.200Z,2.10
2018-11-04T05:50:33.587Z,2.10
2018-11-04T05:53:30.475Z,2.10
2018-11-04T05:56:27.797Z,2.20
2018-11-04T05:59:24.741Z,1.90
2018-11-04T06:02:21.902Z,2.10
2018-11-04T06:05:19.873Z,2.03
2018-11-04T06:08:16.375Z,1.90
2018-11-04T06:11:13.325Z,1.77
2018-11-04T06:14:10.053Z,1.80
2018-11-04T06:17:07.815Z,2.00
2018-11-04T06:20:04.326Z,1.93
2018-11-04T06:23:01.057Z,2.00
2018-11-04T06:25:58.613Z,1.90
2018-11-04T06:28:56.386Z,2.20
2018-11-04T06:31:53.536Z,1.80
2018-11-04T06:34:51.117Z,1.97
2018-11-04T06:37:48.029Z,1.70
2018-11-04T06:40:44.766Z,2.20
2018-11-04T06:43:42.134Z,2.20
2018-11-04T06:46:49.309Z,1.87
2018-11-04T06:49:47.698Z,2.07
2018-11-04T06:52:44.291Z,1.80
2018-11-04T06:55:40.939Z,1.63
2018-11-04T06:58:37.491Z,2.10
2018-11-04T07:01:34.175Z,1.87
2018-11-04T07:04:34.901Z,2.00
2018-11-04T07:07:31.406Z,2.10
2018-11-04T07:10:28.148Z,2.23
2018-11-04T07:13:25.687Z,2.13
2018-11-04T07:16:23.465Z,2.30
2018-11-04T07:19:21.231Z,1.97
2018-11-04T07:22:17.956Z,2.20
2018-11-04T07:25:15.317Z,2.03
2018-11-04T07:28:13.016Z,2.20
2018-11-04T07:31:09.383Z,1.90
2018-11-04T07:34:07.399Z,2.00
2018-11-04T07:37:03.673Z,1.90
2018-11-04T07:40:00.417Z,2.00
2018-11-04T07:42:57.340Z,1.87
2018-11-04T07:45:55.579Z,1.90
2018-11-04T07:48:52.465Z,2.03
2018-11-04T07:51:49.616Z,2.37
2018-11-04T07:54:46.557Z,2.40
2018-11-04T07:57:44.538Z,2.20
2018-11-04T08:00:40.883Z,2.10
2018-11-04T08:03:38.843Z,1.90
2018-11-04T08:06:36.374Z,2.00
2018-11-04T08:09:32.902Z,2.17
2018-11-04T08:12:30.480Z,1.63
2018-11-04T08:15:26.779Z,2.00
2018-11-04T08:18:23.295Z,2.00
2018-11-04T08:21:20.161Z,2.00
2018-11-04T08:24:16.959Z,2.07
2018-11-04T08:27:13.675Z,1.70
2018-11-04T08:30:10.217Z,2.00
2018-11-04T08:33:07.766Z,2.17
2018-11-04T08:36:04.484Z,1.90
2018-11-04T08:39:01.634Z,2.27
2018-11-04T08:42:00.036Z,2.00
2018-11-04T08:44:57.796Z,1.97
2018-11-04T08:47:54.326Z,1.90
2018-11-04T08:50:51.066Z,1.97
2018-11-04T08:53:47.780Z,2.10
2018-11-04T08:56:44.706Z,2.20
2018-11-04T08:59:41.653Z,1.90
2018-11-04T09:02:39.442Z,2.17
2018-11-04T09:05:36.559Z,2.20
2018-11-04T09:08:33.496Z,1.93
2018-11-04T09:11:30.023Z,1.90
2018-11-04T09:14:27.725Z,2.00
2018-11-04T09:17:24.321Z,2.03
2018-11-04T09:20:23.958Z,2.10
2018-11-04T09:23:20.268Z,2.00
2018-11-04T09:26:16.998Z,2.17
2018-11-04T09:29:13.591Z,2.10
2018-11-04T09:32:11.302Z,1.90
2018-11-04T09:35:07.948Z,1.93
2018-11-04T09:38:04.542Z,2.47
2018-11-04T09:41:01.256Z,2.10
2018-11-04T09:43:57.986Z,2.30
2018-11-04T09:46:54.514Z,2.23
2018-11-04T09:49:51.679Z,1.97
2018-11-04T09:52:49.017Z,2.20
2018-11-04T09:55:51.176Z,1.80
2018-11-04T09:58:47.673Z,2.10
2018-11-04T10:01:44.409Z,2.00
2018-11-04T10:04:43.002Z,2.03
2018-11-04T10:07:39.974Z,2.17
2018-11-04T10:10:37.102Z,2.20
2018-11-04T10:13:34.262Z,2.20
2018-11-04T10:16:31.384Z,2.20
2018-11-04T10:19:28.197Z,2.00
2018-11-04T10:22:24.516Z,2.20
2018-11-04T10:25:21.364Z,2.00
2018-11-04T10:28:18.538Z,2.30
2018-11-04T10:31:15.443Z,2.10
2018-11-04T10:34:12.173Z,2.10
2018-11-04T10:37:08.941Z,2.40
2018-11-04T10:40:07.341Z,2.30
2018-11-04T10:43:05.279Z,1.90
2018-11-04T10:46:01.602Z,2.07
2018-11-04T10:48:58.516Z,2.10
2018-11-04T10:51:54.830Z,2.20
2018-11-04T10:54:51.553Z,2.10
2018-11-04T10:57:48.283Z,2.10
2018-11-04T11:00:50.864Z,2.30
2018-11-04T11:03:48.433Z,1.90
2018-11-04T11:06:45.168Z,2.10
2018-11-04T11:09:41.701Z,1.77
2018-11-04T11:12:40.296Z,2.07
2018-11-04T11:15:37.015Z,2.10
2018-11-04T11:18:35.199Z,1.80
2018-11-04T11:21:32.139Z,2.00
2018-11-04T11:24:30.107Z,2.30
2018-11-04T11:27:27.259Z,2.10
2018-11-04T11:30:25.455Z,2.07
2018-11-04T11:33:22.171Z,2.27
2018-11-04T11:36:18.685Z,2.07
2018-11-04T11:39:16.253Z,2.00
2018-11-04T11:42:13.830Z,1.97
2018-11-04T11:45:10.553Z,1.97
2018-11-04T11:48:07.281Z,2.07
2018-11-04T11:51:05.047Z,2.37
2018-11-04T11:54:01.987Z,2.10
2018-11-04T11:56:59.331Z,2.20
2018-11-04T11:59:55.847Z,2.20
2018-11-04T12:02:52.396Z,2.20
2018-11-04T12:05:49.316Z,2.57
2018-11-04T12:08:46.252Z,1.87
2018-11-04T12:11:42.766Z,2.20
2018-11-04T12:14:39.273Z,2.07
2018-11-04T12:17:36.067Z,2.17
2018-11-04T12:20:35.594Z,2.30
2018-11-04T12:23:32.424Z,2.20
2018-11-04T12:26:29.947Z,2.00
2018-11-04T12:29:27.090Z,2.10
2018-11-04T12:32:24.066Z,1.97
2018-11-04T12:35:21.897Z,2.17
2018-11-04T12:38:18.721Z,1.97
2018-11-04T12:41:15.886Z,2.10
2018-11-04T12:44:12.756Z,2.17
2018-11-04T12:47:10.376Z,1.90
2018-11-04T12:50:06.896Z,1.90
2018-11-04T12:53:03.839Z,2.10
2018-11-04T12:56:01.390Z,2.10
2018-11-04T12:58:58.975Z,2.00
2018-11-04T13:01:55.523Z,2.17
2018-11-04T13:04:54.286Z,2.20
2018-11-04T13:07:51.654Z,2.00
2018-11-04T13:10:49.421Z,2.40
2018-11-04T13:13:45.940Z,2.10
2018-11-04T13:16:42.234Z,2.27
2018-11-04T13:19:39.600Z,2.20
2018-11-04T13:22:36.539Z,2.07
2018-11-04T13:25:33.052Z,2.10
2018-11-04T13:28:29.584Z,2.30
2018-11-04T13:31:26.300Z,2.33
2018-11-04T13:34:23.020Z,2.10
2018-11-04T13:37:20.581Z,2.10
2018-11-04T13:40:18.784Z,2.30
2018-11-04T13:43:15.586Z,2.47
2018-11-04T13:46:13.685Z,2.03
2018-11-04T13:49:10.248Z,1.97
2018-11-04T13:52:07.369Z,2.20
2018-11-04T13:55:05.141Z,2.07
2018-11-04T13:58:01.662Z,2.20
2018-11-04T14:00:59.430Z,2.00
2018-11-04T14:03:56.153Z,2.07
2018-11-04T14:06:52.890Z,1.97
2018-11-04T14:09:50.651Z,2.07
2018-11-04T14:12:48.911Z,2.00
2018-11-04T14:15:46.411Z,2.00
2018-11-04T14:18:43.127Z,1.93
2018-11-04T14:21:40.058Z,2.30
2018-11-04T14:24:36.581Z,1.90
2018-11-04T14:27:33.740Z,2.20
2018-11-04T14:30:29.821Z,2.10
2018-11-04T14:33:27.612Z,2.13
2018-11-04T14:36:25.167Z,2.40
2018-11-04T14:39:22.962Z,2.50
2018-11-04T14:42:20.501Z,2.20
2018-11-04T14:45:18.060Z,1.87
2018-11-04T14:48:14.584Z,2.13
2018-11-04T14:51:11.750Z,2.20
2018-11-04T14:54:08.506Z,2.20
2018-11-04T14:57:05.805Z,2.37
2018-11-04T15:00:02.523Z,2.00
2018-11-04T15:02:59.681Z,2.10
2018-11-04T15:05:56.335Z,2.17
2018-11-04T15:08:53.159Z,2.30
2018-11-04T15:11:49.655Z,2.30
2018-11-04T15:14:47.268Z,2.10
2018-11-04T15:17:44.765Z,2.20
2018-11-04T15:20:41.846Z,2.10
2018-11-04T15:23:38.225Z,1.93
2018-11-04T15:26:35.040Z,2.43
2018-11-04T15:29:32.322Z,1.90
2018-11-04T15:32:29.053Z,2.00
2018-11-04T15:35:26.609Z,2.33
2018-11-04T15:38:23.595Z,2.10
2018-11-04T15:41:20.895Z,2.00
2018-11-04T15:44:18.865Z,1.70
2018-11-04T15:47:16.432Z,2.03
2018-11-04T15:50:13.370Z,2.10
2018-11-04T15:53:09.880Z,2.20
2018-11-04T15:56:06.824Z,2.33
2018-11-04T15:59:03.328Z,2.27
2018-11-04T16:02:00.298Z,2.13
2018-11-04T16:04:57.867Z,2.40
2018-11-04T16:07:55.436Z,2.27
2018-11-04T16:10:51.908Z,2.30
2018-11-04T16:13:49.074Z,2.07
2018-11-04T16:16:45.992Z,2.47
2018-11-04T16:19:42.728Z,2.30
2018-11-04T16:22:40.913Z,2.60
2018-11-04T16:25:38.062Z,2.20
2018-11-04T16:28:35.248Z,2.47
2018-11-04T16:31:33.000Z,2.30
2018-11-04T16:34:29.507Z,2.30
2018-11-04T16:37:27.066Z,2.30
2018-11-04T16:40:23.570Z,2.30
2018-11-04T16:43:20.328Z,2.33
2018-11-04T16:46:18.713Z,2.30
2018-11-04T16:49:16.682Z,2.30
2018-11-04T16:52:12.990Z,2.50
2018-11-04T16:55:10.768Z,2.03
2018-11-04T16:58:07.273Z,2.43
2018-11-04T17:01:03.792Z,2.43
2018-11-04T17:04:00.369Z,2.27
2018-11-04T17:06:57.262Z,2.20
2018-11-04T17:09:54.182Z,2.60
2018-11-04T17:12:51.550Z,2.40
2018-11-04T17:15:49.118Z,2.50
2018-11-04T17:18:46.897Z,2.00
2018-11-04T17:21:43.811Z,2.30
2018-11-04T17:24:41.600Z,2.13
2018-11-04T17:27:38.519Z,2.20
2018-11-04T17:30:35.839Z,2.33
2018-11-04T17:33:33.246Z,2.30
2018-11-04T17:36:31.319Z,2.43
2018-11-04T17:39:29.670Z,2.53
2018-11-04T17:42:26.349Z,2.37
2018-11-04T17:45:24.587Z,2.47
2018-11-04T17:48:22.299Z,2.17
2018-11-04T17:51:19.391Z,2.57
2018-11-04T17:54:16.460Z,2.20
2018-11-04T17:57:13.728Z,2.30
2018-11-04T18:00:12.973Z,2.30
2018-11-04T18:03:11.145Z,2.27
2018-11-04T18:06:08.089Z,2.20
2018-11-04T18:09:05.855Z,2.30
2018-11-04T18:12:03.433Z,2.17
2018-11-04T18:15:00.771Z,2.30
2018-11-04T18:17:58.759Z,2.40
2018-11-04T18:20:55.494Z,2.40
2018-11-04T18:23:52.426Z,2.50
2018-11-04T18:26:49.488Z,2.27
2018-11-04T18:29:46.926Z,2.30
2018-11-04T18:32:43.857Z,2.27
2018-11-04T18:35:40.789Z,2.47
2018-11-04T18:38:37.328Z,2.20
2018-11-04T18:41:34.464Z,2.40
2018-11-04T18:44:31.070Z,2.70
2018-11-04T18:47:28.534Z,2.33
2018-11-04T18:50:25.494Z,2.50
2018-11-04T18:53:22.121Z,2.50
2018-11-04T18:56:20.449Z,2.50
2018-11-04T18:59:18.176Z,2.73
2018-11-04T19:02:14.694Z,2.60
2018-11-04T19:05:11.214Z,2.23
2018-11-04T19:08:08.342Z,2.73
2018-11-04T19:11:04.922Z,2.40
2018-11-04T19:14:01.380Z,2.77
2018-11-04T19:16:58.335Z,2.67
2018-11-04T19:19:54.833Z,2.53
2018-11-04T19:22:52.605Z,2.57
2018-11-04T19:25:50.015Z,2.67
2018-11-04T19:28:46.909Z,2.80
2018-11-04T19:31:43.625Z,3.07
2018-11-04T19:34:40.369Z,2.90
2018-11-04T19:37:37.498Z,2.60
2018-11-04T19:40:35.698Z,2.33
2018-11-04T19:43:32.624Z,2.93
2018-11-04T19:46:29.781Z,2.60
2018-11-04T19:49:26.712Z,2.63
2018-11-04T19:52:24.053Z,2.50
2018-11-04T19:55:21.624Z,2.53
2018-11-04T19:58:18.568Z,2.70
2018-11-04T20:01:16.129Z,2.60
2018-11-04T20:04:12.707Z,2.50
2018-11-04T20:07:09.565Z,2.90
2018-11-04T20:10:06.311Z,2.57
2018-11-04T20:13:08.681Z,2.70
2018-11-04T20:16:05.221Z,2.53
2018-11-04T20:19:07.805Z,2.60
2018-11-04T20:22:04.570Z,2.60
2018-11-04T20:25:07.067Z,2.67
2018-11-04T20:28:04.831Z,2.90
2018-11-04T20:31:01.159Z,2.70
2018-11-04T20:33:57.910Z,2.67
2018-11-04T20:36:54.410Z,2.50
2018-11-04T20:39:57.398Z,2.50
2018-11-04T20:42:54.333Z,2.80
2018-11-04T20:45:52.099Z,2.87
2018-11-04T20:48:54.877Z,2.80
2018-11-04T20:51:52.035Z,3.20
2018-11-04T20:54:50.022Z,2.70
2018-11-04T20:57:53.466Z,3.17
2018-11-04T21:00:50.360Z,2.60
2018-11-04T21:03:48.935Z,2.70
2018-11-04T21:06:46.303Z,3.07
2018-11-04T21:09:43.273Z,3.07
2018-11-04T21:12:41.027Z,2.93
2018-11-04T21:15:37.751Z,3.50
2018-11-04T21:18:34.261Z,3.00
2018-11-04T21:21:31.195Z,2.90
2018-11-04T21:24:28.581Z,2.80
2018-11-04T21:27:25.505Z,3.00
2018-11-04T21:30:24.723Z,2.80
2018-11-04T21:33:22.542Z,3.10
2018-11-04T21:36:19.046Z,2.80
2018-11-04T21:39:15.949Z,3.10
2018-11-04T21:42:12.660Z,3.33
2018-11-04T21:45:09.397Z,2.87
2018-11-04T21:48:05.923Z,3.03
2018-11-04T21:51:03.172Z,2.70
2018-11-04T21:54:00.779Z,2.70
2018-11-04T21:56:57.592Z,3.20
2018-11-04T21:59:54.710Z,2.90
2018-11-04T22:02:51.438Z,2.90
2018-11-04T22:05:48.180Z,2.97
2018-11-04T22:08:45.532Z,3.30
2018-11-04T22:11:42.670Z,3.30
2018-11-04T22:14:39.820Z,2.97
2018-11-04T22:17:36.548Z,3.30
2018-11-04T22:20:33.495Z,3.37
2018-11-04T22:23:31.036Z,3.10
2018-11-04T22:26:27.984Z,3.10
2018-11-04T22:29:25.124Z,3.33
2018-11-04T22:32:22.066Z,3.20
2018-11-04T22:35:19.632Z,3.10
2018-11-04T22:38:16.554Z,2.67
2018-11-04T22:41:14.978Z,2.80
2018-11-04T22:44:12.714Z,3.00
2018-11-04T22:47:09.034Z,2.90
2018-11-04T22:50:07.026Z,2.90
2018-11-04T22:53:04.362Z,3.10
2018-11-04T22:56:01.402Z,3.00
2018-11-04T22:58:59.078Z,3.20
2018-11-04T23:01:56.049Z,3.07
2018-11-04T23:04:59.429Z,3.20
2018-11-04T23:07:56.366Z,2.80
2018-11-04T23:10:53.095Z,3.10
2018-11-04T23:13:50.166Z,3.10
2018-11-04T23:16:47.809Z,2.97
2018-11-04T23:19:44.770Z,3.20
2018-11-04T23:22:42.718Z,3.03
2018-11-04T23:25:39.850Z,3.33
2018-11-04T23:28:36.814Z,3.50
2018-11-04T23:31:33.748Z,3.30
2018-11-04T23:34:30.263Z,3.10
2018-11-04T23:37:26.974Z,3.30
2018-11-04T23:40:23.502Z,3.20
2018-11-04T23:43:20.242Z,3.07
2018-11-04T23:46:17.574Z,3.37
2018-11-04T23:49:15.156Z,3.27
2018-11-04T23:52:13.126Z,3.63
2018-11-04T23:55:10.066Z,3.43
2018-11-04T23:58:06.370Z,2.77
